sensor_id;sensor_type;location;lat;lon;timestamp;P1;durP1;ratioP1;P2;durP2;ratioP2
10939;SDS011;5522;42.696;23.494;2023-07-13T00:02:21;5.47;;;4.47;;
10939;SDS011;5522;42.696;23.494;2023-07-13T00:04:48;4.55;;;4.20;;
10939;SDS011;5522;42.696;23.494;2023-07-13T00:07:16;6.45;;;4.60;;
10939;SDS011;5522;42.696;23.494;2023-07-13T00:09:45;4.53;;;4.22;;
10939;SDS011;5522;42.696;23.494;2023-07-13T00:12:24;5.22;;;4.63;;
10939;SDS011;5522;42.696;23.494;2023-07-13T00:14:53;4.50;;;4.18;;
10939;SDS011;5522;42.696;23.494;2023-07-13T00:17:20;7.30;;;5.15;;
10939;SDS011;5522;42.696;23.494;2023-07-13T00:19:47;4.30;;;4.05;;
10939;SDS011;5522;42.696;23.494;2023-07-13T00:22:14;4.18;;;3.97;;
10939;SDS011;5522;42.696;23.494;2023-07-13T00:24:42;6.38;;;5.00;;
10939;SDS011;5522;42.696;23.494;2023-07-13T00:27:09;4.03;;;3.60;;
10939;SDS011;5522;42.696;23.494;2023-07-13T00:29:36;4.50;;;4.30;;
10939;SDS011;5522;42.696;23.494;2023-07-13T00:32:03;5.47;;;4.10;;
10939;SDS011;5522;42.696;23.494;2023-07-13T00:34:32;4.20;;;4.00;;
10939;SDS011;5522;42.696;23.494;2023-07-13T00:36:59;4.75;;;4.45;;
10939;SDS011;5522;42.696;23.494;2023-07-13T00:39:25;5.03;;;4.35;;
10939;SDS011;5522;42.696;23.494;2023-07-13T00:41:54;4.25;;;4.15;;
10939;SDS011;5522;42.696;23.494;2023-07-13T00:44:21;4.22;;;3.92;;
10939;SDS011;5522;42.696;23.494;2023-07-13T00:46:49;3.97;;;3.63;;
10939;SDS011;5522;42.696;23.494;2023-07-13T00:49:17;4.70;;;4.07;;
10939;SDS011;5522;42.696;23.494;2023-07-13T00:51:47;4.50;;;4.20;;
10939;SDS011;5522;42.696;23.494;2023-07-13T00:54:19;4.60;;;4.10;;
10939;SDS011;5522;42.696;23.494;2023-07-13T00:56:50;7.10;;;4.45;;
10939;SDS011;5522;42.696;23.494;2023-07-13T00:59:21;4.55;;;4.15;;
10939;SDS011;5522;42.696;23.494;2023-07-13T01:06:59;4.38;;;4.18;;
10939;SDS011;5522;42.696;23.494;2023-07-13T01:09:41;4.78;;;4.38;;
10939;SDS011;5522;42.696;23.494;2023-07-13T01:12:10;4.85;;;4.32;;
10939;SDS011;5522;42.696;23.494;2023-07-13T01:14:38;4.35;;;3.95;;
10939;SDS011;5522;42.696;23.494;2023-07-13T01:17:07;4.40;;;4.00;;
10939;SDS011;5522;42.696;23.494;2023-07-13T01:19:36;4.15;;;3.88;;
10939;SDS011;5522;42.696;23.494;2023-07-13T01:22:07;4.32;;;4.05;;
10939;SDS011;5522;42.696;23.494;2023-07-13T01:24:36;5.55;;;3.85;;
10939;SDS011;5522;42.696;23.494;2023-07-13T01:27:05;4.60;;;4.13;;
10939;SDS011;5522;42.696;23.494;2023-07-13T01:29:34;4.68;;;4.28;;
10939;SDS011;5522;42.696;23.494;2023-07-13T01:32:07;4.85;;;4.43;;
10939;SDS011;5522;42.696;23.494;2023-07-13T01:34:35;4.25;;;3.97;;
10939;SDS011;5522;42.696;23.494;2023-07-13T01:37:03;4.38;;;3.80;;
10939;SDS011;5522;42.696;23.494;2023-07-13T01:39:32;3.50;;;3.33;;
10939;SDS011;5522;42.696;23.494;2023-07-13T01:41:59;3.83;;;3.50;;
10939;SDS011;5522;42.696;23.494;2023-07-13T01:44:26;4.25;;;4.05;;
10939;SDS011;5522;42.696;23.494;2023-07-13T01:46:53;4.00;;;3.58;;
10939;SDS011;5522;42.696;23.494;2023-07-13T01:49:20;3.83;;;3.58;;
10939;SDS011;5522;42.696;23.494;2023-07-13T01:51:47;5.35;;;3.92;;
10939;SDS011;5522;42.696;23.494;2023-07-13T01:54:14;4.15;;;3.75;;
10939;SDS011;5522;42.696;23.494;2023-07-13T01:56:42;4.20;;;3.38;;
10939;SDS011;5522;42.696;23.494;2023-07-13T01:59:09;4.60;;;4.40;;
10939;SDS011;5522;42.696;23.494;2023-07-13T02:01:36;4.22;;;3.85;;
10939;SDS011;5522;42.696;23.494;2023-07-13T02:04:03;4.22;;;3.83;;
10939;SDS011;5522;42.696;23.494;2023-07-13T02:06:29;3.45;;;3.25;;
10939;SDS011;5522;42.696;23.494;2023-07-13T02:08:57;4.43;;;3.97;;
10939;SDS011;5522;42.696;23.494;2023-07-13T02:11:24;4.00;;;3.58;;
10939;SDS011;5522;42.696;23.494;2023-07-13T02:13:58;5.38;;;4.07;;
10939;SDS011;5522;42.696;23.494;2023-07-13T02:16:25;4.40;;;4.07;;
10939;SDS011;5522;42.696;23.494;2023-07-13T02:18:54;4.57;;;4.28;;
10939;SDS011;5522;42.696;23.494;2023-07-13T02:21:21;5.07;;;4.50;;
10939;SDS011;5522;42.696;23.494;2023-07-13T02:23:48;4.75;;;4.45;;
10939;SDS011;5522;42.696;23.494;2023-07-13T02:26:15;5.05;;;4.65;;
10939;SDS011;5522;42.696;23.494;2023-07-13T02:28:41;4.18;;;3.88;;
10939;SDS011;5522;42.696;23.494;2023-07-13T02:31:10;5.32;;;4.75;;
10939;SDS011;5522;42.696;23.494;2023-07-13T02:33:39;5.07;;;3.75;;
10939;SDS011;5522;42.696;23.494;2023-07-13T02:36:06;4.32;;;3.95;;
10939;SDS011;5522;42.696;23.494;2023-07-13T02:38:33;4.55;;;4.35;;
10939;SDS011;5522;42.696;23.494;2023-07-13T02:41:01;5.30;;;4.90;;
10939;SDS011;5522;42.696;23.494;2023-07-13T02:43:28;5.28;;;4.15;;
10939;SDS011;5522;42.696;23.494;2023-07-13T02:45:56;5.93;;;5.05;;
10939;SDS011;5522;42.696;23.494;2023-07-13T02:48:27;5.53;;;5.22;;
10939;SDS011;5522;42.696;23.494;2023-07-13T02:50:54;6.20;;;4.70;;
10939;SDS011;5522;42.696;23.494;2023-07-13T02:53:20;5.45;;;4.95;;
10939;SDS011;5522;42.696;23.494;2023-07-13T02:55:47;5.72;;;5.35;;
10939;SDS011;5522;42.696;23.494;2023-07-13T02:58:14;5.50;;;5.05;;
10939;SDS011;5522;42.696;23.494;2023-07-13T03:00:42;5.63;;;5.18;;
10939;SDS011;5522;42.696;23.494;2023-07-13T03:03:08;5.20;;;4.80;;
10939;SDS011;5522;42.696;23.494;2023-07-13T03:05:37;4.93;;;3.92;;
10939;SDS011;5522;42.696;23.494;2023-07-13T03:08:07;6.68;;;4.03;;
10939;SDS011;5522;42.696;23.494;2023-07-13T03:10:34;3.80;;;3.45;;
10939;SDS011;5522;42.696;23.494;2023-07-13T03:13:02;4.18;;;3.50;;
10939;SDS011;5522;42.696;23.494;2023-07-13T03:15:29;3.85;;;3.65;;
10939;SDS011;5522;42.696;23.494;2023-07-13T03:17:56;3.90;;;3.60;;
10939;SDS011;5522;42.696;23.494;2023-07-13T03:20:23;3.72;;;3.42;;
10939;SDS011;5522;42.696;23.494;2023-07-13T03:22:51;3.17;;;3.08;;
10939;SDS011;5522;42.696;23.494;2023-07-13T03:25:18;3.28;;;2.97;;
10939;SDS011;5522;42.696;23.494;2023-07-13T03:27:45;5.80;;;2.60;;
10939;SDS011;5522;42.696;23.494;2023-07-13T03:30:12;3.42;;;3.20;;
10939;SDS011;5522;42.696;23.494;2023-07-13T03:32:39;10.05;;;3.28;;
10939;SDS011;5522;42.696;23.494;2023-07-13T03:35:06;5.75;;;3.60;;
10939;SDS011;5522;42.696;23.494;2023-07-13T03:37:34;8.27;;;3.70;;
10939;SDS011;5522;42.696;23.494;2023-07-13T03:40:09;3.10;;;2.67;;
10939;SDS011;5522;42.696;23.494;2023-07-13T03:42:37;6.20;;;2.88;;
10939;SDS011;5522;42.696;23.494;2023-07-13T03:45:04;7.30;;;3.10;;
10939;SDS011;5522;42.696;23.494;2023-07-13T03:47:31;6.55;;;2.72;;
10939;SDS011;5522;42.696;23.494;2023-07-13T03:49:58;5.90;;;2.75;;
10939;SDS011;5522;42.696;23.494;2023-07-13T03:52:25;2.88;;;2.67;;
10939;SDS011;5522;42.696;23.494;2023-07-13T03:54:52;5.20;;;2.67;;
10939;SDS011;5522;42.696;23.494;2023-07-13T03:57:20;3.40;;;3.08;;
10939;SDS011;5522;42.696;23.494;2023-07-13T03:59:47;2.53;;;2.42;;
10939;SDS011;5522;42.696;23.494;2023-07-13T04:02:14;3.25;;;2.50;;
10939;SDS011;5522;42.696;23.494;2023-07-13T04:04:41;2.13;;;2.03;;
10939;SDS011;5522;42.696;23.494;2023-07-13T04:07:07;4.57;;;2.17;;
10939;SDS011;5522;42.696;23.494;2023-07-13T04:09:34;6.70;;;2.10;;
10939;SDS011;5522;42.696;23.494;2023-07-13T04:12:01;3.45;;;1.92;;
10939;SDS011;5522;42.696;23.494;2023-07-13T04:14:30;4.50;;;2.10;;
10939;SDS011;5522;42.696;23.494;2023-07-13T04:16:57;9.43;;;1.92;;
10939;SDS011;5522;42.696;23.494;2023-07-13T04:19:24;1.90;;;1.70;;
10939;SDS011;5522;42.696;23.494;2023-07-13T04:21:50;5.88;;;2.13;;
10939;SDS011;5522;42.696;23.494;2023-07-13T04:24:17;5.75;;;1.65;;
10939;SDS011;5522;42.696;23.494;2023-07-13T04:26:44;4.00;;;1.58;;
10939;SDS011;5522;42.696;23.494;2023-07-13T04:29:11;3.30;;;2.25;;
10939;SDS011;5522;42.696;23.494;2023-07-13T04:31:39;1.98;;;1.88;;
10939;SDS011;5522;42.696;23.494;2023-07-13T04:34:06;5.00;;;1.90;;
10939;SDS011;5522;42.696;23.494;2023-07-13T04:36:33;2.83;;;2.10;;
10939;SDS011;5522;42.696;23.494;2023-07-13T04:39:02;1.77;;;1.75;;
10939;SDS011;5522;42.696;23.494;2023-07-13T04:41:29;7.65;;;1.92;;
10939;SDS011;5522;42.696;23.494;2023-07-13T04:43:56;2.90;;;2.25;;
10939;SDS011;5522;42.696;23.494;2023-07-13T04:46:23;2.47;;;2.28;;
10939;SDS011;5522;42.696;23.494;2023-07-13T04:48:51;3.90;;;1.98;;
10939;SDS011;5522;42.696;23.494;2023-07-13T04:51:18;4.65;;;2.25;;
10939;SDS011;5522;42.696;23.494;2023-07-13T04:53:45;2.45;;;2.08;;
10939;SDS011;5522;42.696;23.494;2023-07-13T04:56:12;1.83;;;1.73;;
10939;SDS011;5522;42.696;23.494;2023-07-13T04:58:39;2.28;;;1.90;;
10939;SDS011;5522;42.696;23.494;2023-07-13T05:01:06;1.98;;;1.90;;
10939;SDS011;5522;42.696;23.494;2023-07-13T05:03:34;2.10;;;1.98;;
10939;SDS011;5522;42.696;23.494;2023-07-13T05:06:03;1.85;;;1.75;;
10939;SDS011;5522;42.696;23.494;2023-07-13T05:08:31;2.60;;;2.25;;
10939;SDS011;5522;42.696;23.494;2023-07-13T05:10:59;3.75;;;1.98;;
10939;SDS011;5522;42.696;23.494;2023-07-13T05:13:26;3.60;;;2.35;;
10939;SDS011;5522;42.696;23.494;2023-07-13T05:15:56;2.50;;;2.05;;
10939;SDS011;5522;42.696;23.494;2023-07-13T05:18:24;7.32;;;2.13;;
10939;SDS011;5522;42.696;23.494;2023-07-13T05:20:56;2.05;;;1.95;;
10939;SDS011;5522;42.696;23.494;2023-07-13T05:23:26;3.75;;;2.00;;
10939;SDS011;5522;42.696;23.494;2023-07-13T05:25:53;8.30;;;2.15;;
10939;SDS011;5522;42.696;23.494;2023-07-13T05:28:20;3.17;;;2.03;;
10939;SDS011;5522;42.696;23.494;2023-07-13T05:30:47;3.40;;;2.35;;
10939;SDS011;5522;42.696;23.494;2023-07-13T05:33:18;3.95;;;3.13;;
10939;SDS011;5522;42.696;23.494;2023-07-13T05:35:44;5.85;;;2.10;;
10939;SDS011;5522;42.696;23.494;2023-07-13T05:38:11;2.50;;;2.30;;
10939;SDS011;5522;42.696;23.494;2023-07-13T05:40:41;5.30;;;2.00;;
10939;SDS011;5522;42.696;23.494;2023-07-13T05:43:09;1.90;;;1.67;;
10939;SDS011;5522;42.696;23.494;2023-07-13T05:45:38;2.50;;;1.98;;
10939;SDS011;5522;42.696;23.494;2023-07-13T05:48:05;2.08;;;1.85;;
10939;SDS011;5522;42.696;23.494;2023-07-13T05:50:33;5.35;;;2.25;;
10939;SDS011;5522;42.696;23.494;2023-07-13T05:53:01;6.65;;;2.05;;
10939;SDS011;5522;42.696;23.494;2023-07-13T05:55:27;2.85;;;2.25;;
10939;SDS011;5522;42.696;23.494;2023-07-13T05:57:56;3.08;;;2.47;;
10939;SDS011;5522;42.696;23.494;2023-07-13T06:00:24;2.55;;;2.20;;
10939;SDS011;5522;42.696;23.494;2023-07-13T06:02:56;4.07;;;2.90;;
10939;SDS011;5522;42.696;23.494;2023-07-13T06:05:23;1.60;;;1.60;;
10939;SDS011;5522;42.696;23.494;2023-07-13T06:07:50;2.55;;;2.17;;
10939;SDS011;5522;42.696;23.494;2023-07-13T06:10:17;3.97;;;2.45;;
10939;SDS011;5522;42.696;23.494;2023-07-13T06:12:44;3.17;;;2.70;;
10939;SDS011;5522;42.696;23.494;2023-07-13T06:15:13;5.07;;;2.90;;
10939;SDS011;5522;42.696;23.494;2023-07-13T06:17:41;2.80;;;2.55;;
10939;SDS011;5522;42.696;23.494;2023-07-13T06:20:08;2.58;;;2.38;;
10939;SDS011;5522;42.696;23.494;2023-07-13T06:22:35;2.38;;;2.17;;
10939;SDS011;5522;42.696;23.494;2023-07-13T06:25:01;2.40;;;2.15;;
10939;SDS011;5522;42.696;23.494;2023-07-13T06:27:29;2.97;;;2.42;;
10939;SDS011;5522;42.696;23.494;2023-07-13T06:29:56;2.30;;;2.10;;
10939;SDS011;5522;42.696;23.494;2023-07-13T06:32:24;3.42;;;2.25;;
10939;SDS011;5522;42.696;23.494;2023-07-13T06:34:51;5.55;;;2.13;;
10939;SDS011;5522;42.696;23.494;2023-07-13T06:37:18;5.80;;;2.20;;
10939;SDS011;5522;42.696;23.494;2023-07-13T06:39:45;2.45;;;2.10;;
10939;SDS011;5522;42.696;23.494;2023-07-13T06:42:12;3.88;;;1.90;;
10939;SDS011;5522;42.696;23.494;2023-07-13T06:44:39;5.03;;;2.75;;
10939;SDS011;5522;42.696;23.494;2023-07-13T06:47:06;2.60;;;2.42;;
10939;SDS011;5522;42.696;23.494;2023-07-13T06:49:34;4.00;;;2.92;;
10939;SDS011;5522;42.696;23.494;2023-07-13T06:52:01;7.60;;;2.65;;
10939;SDS011;5522;42.696;23.494;2023-07-13T06:54:28;5.00;;;2.83;;
10939;SDS011;5522;42.696;23.494;2023-07-13T06:56:55;5.25;;;2.10;;
10939;SDS011;5522;42.696;23.494;2023-07-13T06:59:21;6.30;;;2.72;;
10939;SDS011;5522;42.696;23.494;2023-07-13T07:01:48;5.68;;;2.60;;
10939;SDS011;5522;42.696;23.494;2023-07-13T07:04:15;2.95;;;2.78;;
10939;SDS011;5522;42.696;23.494;2023-07-13T07:06:43;2.15;;;2.03;;
10939;SDS011;5522;42.696;23.494;2023-07-13T07:09:10;2.22;;;2.03;;
10939;SDS011;5522;42.696;23.494;2023-07-13T07:11:37;5.40;;;2.22;;
10939;SDS011;5522;42.696;23.494;2023-07-13T07:14:04;2.60;;;2.40;;
10939;SDS011;5522;42.696;23.494;2023-07-13T07:16:31;3.17;;;1.73;;
10939;SDS011;5522;42.696;23.494;2023-07-13T07:18:58;1.95;;;1.85;;
10939;SDS011;5522;42.696;23.494;2023-07-13T07:21:28;3.75;;;2.55;;
10939;SDS011;5522;42.696;23.494;2023-07-13T07:24:02;2.17;;;1.98;;
10939;SDS011;5522;42.696;23.494;2023-07-13T07:26:29;4.35;;;2.33;;
10939;SDS011;5522;42.696;23.494;2023-07-13T07:28:56;6.25;;;2.22;;
10939;SDS011;5522;42.696;23.494;2023-07-13T07:31:24;3.30;;;1.98;;
10939;SDS011;5522;42.696;23.494;2023-07-13T07:33:51;8.85;;;2.10;;
10939;SDS011;5522;42.696;23.494;2023-07-13T07:36:18;6.30;;;1.95;;
10939;SDS011;5522;42.696;23.494;2023-07-13T07:38:45;4.60;;;2.38;;
10939;SDS011;5522;42.696;23.494;2023-07-13T07:41:18;4.03;;;2.15;;
10939;SDS011;5522;42.696;23.494;2023-07-13T07:43:47;7.72;;;1.98;;
10939;SDS011;5522;42.696;23.494;2023-07-13T07:46:14;7.70;;;2.28;;
10939;SDS011;5522;42.696;23.494;2023-07-13T07:48:41;2.28;;;2.05;;
10939;SDS011;5522;42.696;23.494;2023-07-13T07:51:07;7.28;;;2.40;;
10939;SDS011;5522;42.696;23.494;2023-07-13T07:53:36;4.10;;;2.67;;
10939;SDS011;5522;42.696;23.494;2023-07-13T07:56:05;5.22;;;1.90;;
10939;SDS011;5522;42.696;23.494;2023-07-13T07:58:33;5.00;;;2.15;;
10939;SDS011;5522;42.696;23.494;2023-07-13T08:01:03;2.88;;;1.63;;
10939;SDS011;5522;42.696;23.494;2023-07-13T08:03:31;5.38;;;2.10;;
10939;SDS011;5522;42.696;23.494;2023-07-13T08:05:58;5.07;;;2.30;;
10939;SDS011;5522;42.696;23.494;2023-07-13T08:08:25;5.80;;;2.83;;
10939;SDS011;5522;42.696;23.494;2023-07-13T08:10:52;6.80;;;2.63;;
10939;SDS011;5522;42.696;23.494;2023-07-13T08:13:19;4.55;;;2.30;;
10939;SDS011;5522;42.696;23.494;2023-07-13T08:15:51;6.00;;;2.55;;
10939;SDS011;5522;42.696;23.494;2023-07-13T08:18:18;4.93;;;1.88;;
10939;SDS011;5522;42.696;23.494;2023-07-13T08:20:45;3.83;;;2.47;;
10939;SDS011;5522;42.696;23.494;2023-07-13T08:23:12;5.65;;;2.30;;
10939;SDS011;5522;42.696;23.494;2023-07-13T08:25:41;2.47;;;1.80;;
10939;SDS011;5522;42.696;23.494;2023-07-13T08:28:08;4.68;;;2.20;;
10939;SDS011;5522;42.696;23.494;2023-07-13T08:30:37;6.72;;;2.50;;
10939;SDS011;5522;42.696;23.494;2023-07-13T08:33:10;3.75;;;2.35;;
10939;SDS011;5522;42.696;23.494;2023-07-13T08:35:37;4.20;;;2.50;;
10939;SDS011;5522;42.696;23.494;2023-07-13T08:38:04;5.30;;;2.45;;
10939;SDS011;5522;42.696;23.494;2023-07-13T08:40:31;2.25;;;2.13;;
10939;SDS011;5522;42.696;23.494;2023-07-13T08:43:01;4.78;;;2.40;;
10939;SDS011;5522;42.696;23.494;2023-07-13T08:45:36;6.65;;;1.95;;
10939;SDS011;5522;42.696;23.494;2023-07-13T08:48:13;3.10;;;2.20;;
10939;SDS011;5522;42.696;23.494;2023-07-13T08:50:47;4.10;;;1.90;;
10939;SDS011;5522;42.696;23.494;2023-07-13T08:53:18;6.32;;;2.08;;
10939;SDS011;5522;42.696;23.494;2023-07-13T08:55:45;3.47;;;2.25;;
10939;SDS011;5522;42.696;23.494;2023-07-13T08:58:13;9.15;;;2.50;;
10939;SDS011;5522;42.696;23.494;2023-07-13T09:00:47;4.13;;;2.15;;
10939;SDS011;5522;42.696;23.494;2023-07-13T09:03:22;7.07;;;2.40;;
10939;SDS011;5522;42.696;23.494;2023-07-13T09:05:54;5.32;;;2.20;;
10939;SDS011;5522;42.696;23.494;2023-07-13T09:08:29;4.20;;;1.80;;
10939;SDS011;5522;42.696;23.494;2023-07-13T09:11:14;3.28;;;2.00;;
10939;SDS011;5522;42.696;23.494;2023-07-13T09:13:51;2.90;;;2.00;;
10939;SDS011;5522;42.696;23.494;2023-07-13T09:16:27;3.92;;;1.90;;
10939;SDS011;5522;42.696;23.494;2023-07-13T09:19:01;7.22;;;2.25;;
10939;SDS011;5522;42.696;23.494;2023-07-13T09:21:32;6.57;;;1.98;;
10939;SDS011;5522;42.696;23.494;2023-07-13T09:24:14;7.93;;;2.25;;
10939;SDS011;5522;42.696;23.494;2023-07-13T09:26:55;6.65;;;2.05;;
10939;SDS011;5522;42.696;23.494;2023-07-13T09:29:24;2.08;;;1.80;;
10939;SDS011;5522;42.696;23.494;2023-07-13T09:31:55;2.65;;;2.17;;
10939;SDS011;5522;42.696;23.494;2023-07-13T09:34:27;7.90;;;1.75;;
10939;SDS011;5522;42.696;23.494;2023-07-13T09:36:55;3.08;;;2.42;;
10939;SDS011;5522;42.696;23.494;2023-07-13T09:39:24;7.65;;;1.85;;
10939;SDS011;5522;42.696;23.494;2023-07-13T09:41:54;2.95;;;2.08;;
10939;SDS011;5522;42.696;23.494;2023-07-13T09:44:28;6.18;;;2.03;;
10939;SDS011;5522;42.696;23.494;2023-07-13T09:46:57;5.78;;;2.60;;
10939;SDS011;5522;42.696;23.494;2023-07-13T09:49:29;3.47;;;2.35;;
10939;SDS011;5522;42.696;23.494;2023-07-13T09:52:01;2.63;;;2.28;;
10939;SDS011;5522;42.696;23.494;2023-07-13T09:54:32;6.82;;;2.30;;
10939;SDS011;5522;42.696;23.494;2023-07-13T09:57:00;11.85;;;2.17;;
10939;SDS011;5522;42.696;23.494;2023-07-13T09:59:29;12.38;;;2.97;;
10939;SDS011;5522;42.696;23.494;2023-07-13T10:01:57;8.88;;;2.22;;
10939;SDS011;5522;42.696;23.494;2023-07-13T10:04:29;7.03;;;2.38;;
10939;SDS011;5522;42.696;23.494;2023-07-13T10:07:08;8.80;;;3.42;;
10939;SDS011;5522;42.696;23.494;2023-07-13T10:09:38;6.35;;;2.72;;
10939;SDS011;5522;42.696;23.494;2023-07-13T10:12:12;6.97;;;2.70;;
10939;SDS011;5522;42.696;23.494;2023-07-13T10:14:41;9.18;;;3.20;;
10939;SDS011;5522;42.696;23.494;2023-07-13T10:17:08;6.80;;;2.85;;
10939;SDS011;5522;42.696;23.494;2023-07-13T10:19:40;7.40;;;2.70;;
10939;SDS011;5522;42.696;23.494;2023-07-13T10:22:12;6.68;;;2.42;;
10939;SDS011;5522;42.696;23.494;2023-07-13T10:24:46;6.35;;;2.85;;
10939;SDS011;5522;42.696;23.494;2023-07-13T10:27:15;4.38;;;2.38;;
10939;SDS011;5522;42.696;23.494;2023-07-13T10:29:45;7.90;;;2.70;;
10939;SDS011;5522;42.696;23.494;2023-07-13T10:32:14;3.72;;;2.10;;
10939;SDS011;5522;42.696;23.494;2023-07-13T10:34:43;7.63;;;2.58;;
10939;SDS011;5522;42.696;23.494;2023-07-13T10:37:16;5.82;;;2.88;;
10939;SDS011;5522;42.696;23.494;2023-07-13T10:39:50;5.70;;;2.60;;
10939;SDS011;5522;42.696;23.494;2023-07-13T10:42:24;3.53;;;2.28;;
10939;SDS011;5522;42.696;23.494;2023-07-13T10:44:54;4.03;;;2.20;;
10939;SDS011;5522;42.696;23.494;2023-07-13T10:47:21;15.95;;;2.42;;
10939;SDS011;5522;42.696;23.494;2023-07-13T10:49:50;7.68;;;2.65;;
10939;SDS011;5522;42.696;23.494;2023-07-13T10:52:39;5.93;;;2.80;;
10939;SDS011;5522;42.696;23.494;2023-07-13T10:58:01;4.80;;;2.10;;
10939;SDS011;5522;42.696;23.494;2023-07-13T11:00:32;9.05;;;2.30;;
10939;SDS011;5522;42.696;23.494;2023-07-13T11:03:10;5.90;;;1.73;;
10939;SDS011;5522;42.696;23.494;2023-07-13T11:05:43;9.40;;;2.30;;
10939;SDS011;5522;42.696;23.494;2023-07-13T11:08:16;11.35;;;2.80;;
10939;SDS011;5522;42.696;23.494;2023-07-13T11:10:51;4.18;;;2.58;;
10939;SDS011;5522;42.696;23.494;2023-07-13T11:13:54;12.00;;;3.28;;
10939;SDS011;5522;42.696;23.494;2023-07-13T11:16:38;4.40;;;1.58;;
10939;SDS011;5522;42.696;23.494;2023-07-13T11:22:21;12.45;;;1.90;;
10939;SDS011;5522;42.696;23.494;2023-07-13T11:24:57;3.53;;;1.83;;
10939;SDS011;5522;42.696;23.494;2023-07-13T11:27:35;6.28;;;2.10;;
10939;SDS011;5522;42.696;23.494;2023-07-13T11:30:24;7.35;;;2.42;;
10939;SDS011;5522;42.696;23.494;2023-07-13T11:33:07;3.65;;;1.83;;
10939;SDS011;5522;42.696;23.494;2023-07-13T11:35:42;12.75;;;2.03;;
10939;SDS011;5522;42.696;23.494;2023-07-13T11:38:17;6.80;;;1.42;;
10939;SDS011;5522;42.696;23.494;2023-07-13T11:40:47;4.07;;;1.83;;
10939;SDS011;5522;42.696;23.494;2023-07-13T11:43:16;5.45;;;2.00;;
10939;SDS011;5522;42.696;23.494;2023-07-13T11:45:43;5.20;;;1.70;;
10939;SDS011;5522;42.696;23.494;2023-07-13T11:48:17;6.70;;;2.13;;
10939;SDS011;5522;42.696;23.494;2023-07-13T11:50:49;6.80;;;2.47;;
10939;SDS011;5522;42.696;23.494;2023-07-13T11:53:19;7.97;;;2.92;;
10939;SDS011;5522;42.696;23.494;2023-07-13T11:55:47;4.35;;;2.63;;
10939;SDS011;5522;42.696;23.494;2023-07-13T11:58:15;11.43;;;2.70;;
10939;SDS011;5522;42.696;23.494;2023-07-13T12:00:49;5.32;;;1.88;;
10939;SDS011;5522;42.696;23.494;2023-07-13T12:03:18;3.28;;;1.90;;
10939;SDS011;5522;42.696;23.494;2023-07-13T12:05:59;5.60;;;1.83;;
10939;SDS011;5522;42.696;23.494;2023-07-13T12:08:28;8.38;;;2.33;;
10939;SDS011;5522;42.696;23.494;2023-07-13T12:10:59;5.38;;;1.75;;
10939;SDS011;5522;42.696;23.494;2023-07-13T12:13:34;11.23;;;2.20;;
10939;SDS011;5522;42.696;23.494;2023-07-13T12:16:02;9.63;;;1.90;;
10939;SDS011;5522;42.696;23.494;2023-07-13T12:18:38;6.30;;;1.77;;
10939;SDS011;5522;42.696;23.494;2023-07-13T12:21:10;13.60;;;2.45;;
10939;SDS011;5522;42.696;23.494;2023-07-13T12:23:42;9.90;;;2.83;;
10939;SDS011;5522;42.696;23.494;2023-07-13T12:26:10;3.85;;;1.55;;
10939;SDS011;5522;42.696;23.494;2023-07-13T12:28:44;8.60;;;1.40;;
10939;SDS011;5522;42.696;23.494;2023-07-13T12:34:00;4.43;;;1.50;;
10939;SDS011;5522;42.696;23.494;2023-07-13T12:36:31;8.45;;;1.95;;
10939;SDS011;5522;42.696;23.494;2023-07-13T12:39:02;7.72;;;1.40;;
10939;SDS011;5522;42.696;23.494;2023-07-13T12:41:38;2.08;;;1.67;;
10939;SDS011;5522;42.696;23.494;2023-07-13T12:44:11;5.22;;;1.77;;
10939;SDS011;5522;42.696;23.494;2023-07-13T12:46:47;2.03;;;1.50;;
10939;SDS011;5522;42.696;23.494;2023-07-13T12:49:21;2.58;;;1.48;;
10939;SDS011;5522;42.696;23.494;2023-07-13T12:51:55;4.38;;;1.20;;
10939;SDS011;5522;42.696;23.494;2023-07-13T12:54:26;3.33;;;1.40;;
10939;SDS011;5522;42.696;23.494;2023-07-13T12:56:54;3.70;;;1.05;;
10939;SDS011;5522;42.696;23.494;2023-07-13T12:59:23;9.48;;;1.70;;
10939;SDS011;5522;42.696;23.494;2023-07-13T13:01:55;5.85;;;1.52;;
10939;SDS011;5522;42.696;23.494;2023-07-13T13:04:22;6.35;;;1.50;;
10939;SDS011;5522;42.696;23.494;2023-07-13T13:07:00;5.90;;;1.50;;
10939;SDS011;5522;42.696;23.494;2023-07-13T13:09:29;3.75;;;2.05;;
10939;SDS011;5522;42.696;23.494;2023-07-13T13:11:56;4.47;;;1.42;;
10939;SDS011;5522;42.696;23.494;2023-07-13T13:14:25;5.90;;;1.40;;
10939;SDS011;5522;42.696;23.494;2023-07-13T13:16:52;8.38;;;1.52;;
10939;SDS011;5522;42.696;23.494;2023-07-13T13:19:22;8.32;;;1.48;;
10939;SDS011;5522;42.696;23.494;2023-07-13T13:21:51;5.03;;;1.75;;
10939;SDS011;5522;42.696;23.494;2023-07-13T13:24:20;5.43;;;1.42;;
10939;SDS011;5522;42.696;23.494;2023-07-13T13:26:50;2.58;;;1.17;;
10939;SDS011;5522;42.696;23.494;2023-07-13T13:29:19;6.05;;;1.67;;
10939;SDS011;5522;42.696;23.494;2023-07-13T13:31:46;4.00;;;1.33;;
10939;SDS011;5522;42.696;23.494;2023-07-13T13:34:15;13.60;;;1.60;;
10939;SDS011;5522;42.696;23.494;2023-07-13T13:36:45;9.60;;;1.50;;
10939;SDS011;5522;42.696;23.494;2023-07-13T13:39:18;11.80;;;1.33;;
10939;SDS011;5522;42.696;23.494;2023-07-13T13:41:47;12.65;;;1.30;;
10939;SDS011;5522;42.696;23.494;2023-07-13T13:44:17;5.28;;;1.95;;
10939;SDS011;5522;42.696;23.494;2023-07-13T13:46:44;6.22;;;1.60;;
10939;SDS011;5522;42.696;23.494;2023-07-13T13:49:14;9.40;;;1.75;;
10939;SDS011;5522;42.696;23.494;2023-07-13T13:51:43;7.63;;;1.30;;
10939;SDS011;5522;42.696;23.494;2023-07-13T13:54:11;13.50;;;1.88;;
10939;SDS011;5522;42.696;23.494;2023-07-13T13:56:41;4.88;;;1.63;;
10939;SDS011;5522;42.696;23.494;2023-07-13T13:59:10;2.80;;;1.50;;
10939;SDS011;5522;42.696;23.494;2023-07-13T14:01:37;8.57;;;1.48;;
10939;SDS011;5522;42.696;23.494;2023-07-13T14:04:05;4.18;;;1.60;;
10939;SDS011;5522;42.696;23.494;2023-07-13T14:06:33;3.95;;;1.27;;
10939;SDS011;5522;42.696;23.494;2023-07-13T14:09:00;8.90;;;2.00;;
10939;SDS011;5522;42.696;23.494;2023-07-13T14:11:29;3.90;;;1.50;;
10939;SDS011;5522;42.696;23.494;2023-07-13T14:14:00;9.80;;;2.22;;
10939;SDS011;5522;42.696;23.494;2023-07-13T14:16:31;6.82;;;1.42;;
10939;SDS011;5522;42.696;23.494;2023-07-13T14:19:00;4.13;;;1.50;;
10939;SDS011;5522;42.696;23.494;2023-07-13T14:21:28;5.63;;;1.25;;
10939;SDS011;5522;42.696;23.494;2023-07-13T14:23:55;14.07;;;1.40;;
10939;SDS011;5522;42.696;23.494;2023-07-13T14:26:24;10.23;;;1.70;;
10939;SDS011;5522;42.696;23.494;2023-07-13T14:28:52;5.90;;;1.45;;
10939;SDS011;5522;42.696;23.494;2023-07-13T14:31:21;6.50;;;1.65;;
10939;SDS011;5522;42.696;23.494;2023-07-13T14:33:50;6.50;;;1.55;;
10939;SDS011;5522;42.696;23.494;2023-07-13T14:36:21;8.55;;;1.65;;
10939;SDS011;5522;42.696;23.494;2023-07-13T14:38:53;9.93;;;1.35;;
10939;SDS011;5522;42.696;23.494;2023-07-13T14:41:20;6.18;;;1.35;;
10939;SDS011;5522;42.696;23.494;2023-07-13T14:43:47;6.30;;;1.23;;
10939;SDS011;5522;42.696;23.494;2023-07-13T14:46:21;2.17;;;1.20;;
10939;SDS011;5522;42.696;23.494;2023-07-13T14:48:55;9.40;;;1.45;;
10939;SDS011;5522;42.696;23.494;2023-07-13T14:51:27;3.00;;;1.40;;
10939;SDS011;5522;42.696;23.494;2023-07-13T14:53:54;3.97;;;1.08;;
10939;SDS011;5522;42.696;23.494;2023-07-13T14:56:21;9.32;;;1.60;;
10939;SDS011;5522;42.696;23.494;2023-07-13T14:58:48;6.97;;;1.40;;
10939;SDS011;5522;42.696;23.494;2023-07-13T15:01:15;10.15;;;1.40;;
10939;SDS011;5522;42.696;23.494;2023-07-13T15:03:43;3.20;;;1.23;;
10939;SDS011;5522;42.696;23.494;2023-07-13T15:06:13;4.30;;;0.90;;
10939;SDS011;5522;42.696;23.494;2023-07-13T15:08:41;4.80;;;1.23;;
10939;SDS011;5522;42.696;23.494;2023-07-13T15:11:08;9.98;;;1.60;;
10939;SDS011;5522;42.696;23.494;2023-07-13T15:13:37;7.50;;;1.80;;
10939;SDS011;5522;42.696;23.494;2023-07-13T15:16:09;8.77;;;1.40;;